Time;durP1;ratioP1;P1;durP2;ratioP2;P2;SDS_P1;SDS_P2;PMS_P1;PMS_P2;Temp;Humidity;BMP_temperature;BMP_pressure;BME280_temperature;BME280_humidity;BME280_pressure;Samples;Min_cycle;Max_cycle;Signal;HPM_P1;HPM_P2
2021/04/27 00:02:57;;;;;;;5.57;2.20;;;8.60;75.20;;;;;;6633495;88;20294;-74
2021/04/27 00:13:00;;;;;;;4.80;2.00;;;8.50;78.80;;;;;;6642048;89;20501;-74
2021/04/27 00:23:01;;;;;;;3.35;1.67;;;8.50;72.00;;;;;;6633607;88;20192;-75
2021/04/27 00:33:02;;;;;;;3.05;1.60;;;8.70;70.40;;;;;;6643296;88;20181;-75
2021/04/27 00:43:03;;;;;;;5.20;1.50;;;8.70;68.10;;;;;;6646634;88;20208;-75
2021/04/27 00:53:05;;;;;;;3.90;1.70;;;8.80;67.60;;;;;;6649317;89;20191;-75
2021/04/27 01:03:07;;;;;;;4.95;1.70;;;8.60;70.00;;;;;;6637400;89;20229;-75
2021/04/27 01:13:14;;;;;;;3.47;1.58;;;8.40;72.70;;;;;;6634353;89;20203;-75
2021/04/27 01:23:24;;;;;;;2.95;1.60;;;8.30;70.70;;;;;;6646569;88;20202;-75
2021/04/27 01:33:27;;;;;;;3.33;1.55;;;8.10;71.00;;;;;;6658377;89;20216;-74
2021/04/27 01:43:28;;;;;;;2.95;1.50;;;8.00;72.20;;;;;;6654804;89;20187;-77
2021/04/27 01:53:31;;;;;;;3.87;1.75;;;7.90;72.50;;;;;;6651915;89;20764;-74
2021/04/27 02:03:45;;;;;;;6.32;1.90;;;7.70;74.10;;;;;;6647095;89;20219;-74
2021/04/27 02:13:46;;;;;;;4.20;1.70;;;7.60;74.40;;;;;;6647987;89;21023;-74
2021/04/27 02:23:47;;;;;;;4.20;1.80;;;7.20;76.50;;;;;;6661423;89;20220;-74
2021/04/27 02:33:48;;;;;;;3.30;1.70;;;7.10;78.40;;;;;;6664822;88;20236;-75
2021/04/27 02:43:49;;;;;;;4.25;2.03;;;6.90;80.80;;;;;;6655079;88;20321;-75
2021/04/27 02:53:49;;;;;;;3.50;1.70;;;6.70;83.90;;;;;;6637967;88;20184;-76
2021/04/27 03:03:50;;;;;;;4.70;2.10;;;6.40;86.90;;;;;;6634393;88;21037;-76
2021/04/27 03:13:54;;;;;;;3.95;1.73;;;6.30;90.20;;;;;;6637755;88;20246;-75
2021/04/27 03:23:55;;;;;;;2.95;1.60;;;6.30;89.90;;;;;;6633827;88;20671;-76
2021/04/27 03:33:55;;;;;;;6.18;1.92;;;6.20;91.40;;;;;;6634758;88;20256;-76
2021/04/27 03:43:56;;;;;;;6.62;2.10;;;6.00;91.90;;;;;;6636322;88;20601;-76
2021/04/27 03:53:56;;;;;;;6.25;2.30;;;5.90;92.90;;;;;;6637705;88;20202;-76
2021/04/27 04:03:57;;;;;;;5.03;2.10;;;5.80;94.30;;;;;;6642096;88;20193;-75
2021/04/27 04:13:58;;;;;;;3.87;1.80;;;5.80;94.90;;;;;;6638934;88;20199;-76
2021/04/27 04:23:58;;;;;;;4.60;2.15;;;5.70;95.70;;;;;;6641468;88;20258;-75
2021/04/27 04:33:59;;;;;;;7.00;1.95;;;5.50;97.30;;;;;;6647454;89;20226;-75
2021/04/27 04:43:59;;;;;;;5.47;1.98;;;5.50;98.00;;;;;;6642873;88;21043;-75
2021/04/27 04:54:00;;;;;;;4.07;2.03;;;5.70;97.20;;;;;;6637265;88;20513;-74
2021/04/27 05:04:01;;;;;;;3.95;1.90;;;5.60;97.70;;;;;;6640500;88;20237;-75
2021/04/27 05:14:01;;;;;;;4.12;1.95;;;5.70;97.80;;;;;;6638780;88;20188;-74
2021/04/27 05:24:02;;;;;;;10.50;2.20;;;5.90;97.10;;;;;;6654982;88;20571;-74
2021/04/27 05:34:03;;;;;;;4.37;2.30;;;5.90;97.10;;;;;;6637183;88;20215;-74
2021/04/27 05:44:03;;;;;;;5.07;2.00;;;6.00;97.20;;;;;;6641200;88;20340;-76
2021/04/27 05:54:05;;;;;;;4.10;1.73;;;6.80;94.10;;;;;;6650298;88;20197;-75
2021/04/27 06:04:05;;;;;;;6.30;1.95;;;7.60;90.10;;;;;;6646525;88;20192;-77
2021/04/27 06:14:06;;;;;;;10.13;1.85;;;8.20;85.10;;;;;;6644284;89;20245;-76
2021/04/27 06:24:07;;;;;;;5.30;1.77;;;8.40;79.90;;;;;;6645009;88;20267;-76
2021/04/27 06:34:08;;;;;;;4.18;1.60;;;8.80;78.60;;;;;;6647385;88;20221;-75
2021/04/27 06:44:09;;;;;;;7.97;2.12;;;9.70;75.90;;;;;;6635447;88;20744;-76
2021/04/27 06:54:10;;;;;;;6.22;2.28;;;9.70;75.80;;;;;;6636311;88;20177;-76
2021/04/27 07:04:10;;;;;;;7.22;2.10;;;9.90;73.90;;;;;;6636179;88;20687;-76
2021/04/27 07:14:11;;;;;;;2.80;1.70;;;10.50;70.20;;;;;;6640877;88;20204;-75
2021/04/27 07:24:12;;;;;;;6.05;1.77;;;10.10;68.60;;;;;;6635658;89;20202;-76
2021/04/27 07:34:13;;;;;;;2.87;1.70;;;10.30;67.70;;;;;;6634148;88;20194;-76
2021/04/27 07:44:13;;;;;;;8.77;1.75;;;10.90;65.80;;;;;;6634573;88;20616;-75
2021/04/27 07:54:14;;;;;;;5.63;1.70;;;11.40;64.70;;;;;;6643815;88;20177;-75
2021/04/27 08:04:15;;;;;;;5.45;2.00;;;11.80;64.70;;;;;;6637874;88;20520;-75
2021/04/27 08:14:16;;;;;;;3.45;1.60;;;12.60;62.90;;;;;;6637778;88;20197;-75
2021/04/27 08:24:17;;;;;;;5.82;2.10;;;13.00;61.30;;;;;;6641354;89;20361;-77
2021/04/27 08:34:18;;;;;;;3.87;1.67;;;13.40;60.10;;;;;;6634197;88;20189;-76
2021/04/27 08:44:19;;;;;;;4.47;2.05;;;13.60;58.80;;;;;;6637104;89;20575;-76
2021/04/27 08:54:20;;;;;;;6.65;1.98;;;14.50;58.60;;;;;;6634496;89;20210;-77
2021/04/27 09:04:37;;;;;;;4.10;1.92;;;15.40;55.30;;;;;;6638024;88;20212;-76
2021/04/27 09:14:40;;;;;;;4.97;1.90;;;15.40;53.60;;;;;;6636572;88;20203;-77
2021/04/27 09:24:49;;;;;;;4.43;2.22;;;16.00;54.70;;;;;;6642266;88;20197;-77
2021/04/27 09:34:49;;;;;;;4.95;2.47;;;17.60;51.80;;;;;;6635043;88;20295;-76
2021/04/27 09:44:55;;;;;;;4.95;2.40;;;18.80;48.40;;;;;;6656762;88;20361;-76
2021/04/27 09:55:03;;;;;;;4.47;2.25;;;20.40;46.20;;;;;;6649690;88;20220;-76
2021/04/27 10:05:04;;;;;;;4.43;2.20;;;19.30;45.90;;;;;;6649707;88;20775;-78
2021/04/27 10:15:07;;;;;;;4.87;2.20;;;19.10;46.50;;;;;;6658790;77;20990;-76
2021/04/27 10:25:12;;;;;;;12.80;2.53;;;20.90;45.10;;;;;;6652440;88;20281;-77
2021/04/27 10:35:13;;;;;;;9.73;2.70;;;20.80;43.10;;;;;;6647381;88;20687;-77
2021/04/27 10:45:16;;;;;;;7.20;2.60;;;21.40;43.30;;;;;;6646976;88;20705;-77
2021/04/27 10:55:22;;;;;;;11.02;3.90;;;22.20;41.30;;;;;;6649459;89;20185;-79
2021/04/27 11:05:24;;;;;;;7.55;3.05;;;22.80;41.90;;;;;;6650954;89;20663;-78
2021/04/27 11:15:27;;;;;;;4.18;2.67;;;19.80;42.40;;;;;;6654374;89;20208;-79
2021/04/27 11:25:34;;;;;;;5.85;2.40;;;21.40;42.40;;;;;;6655097;89;20244;-79
2021/04/27 11:35:40;;;;;;;7.10;2.95;;;20.90;42.70;;;;;;6654439;89;20269;-79
2021/04/27 11:45:45;;;;;;;14.85;4.35;;;22.40;41.20;;;;;;6649606;89;20216;-79
2021/04/27 11:55:47;;;;;;;7.55;2.97;;;21.50;39.50;;;;;;6651773;89;20965;-80
2021/04/27 12:05:50;;;;;;;6.35;2.70;;;21.90;40.30;;;;;;6652824;89;20204;-78
2021/04/27 12:16:04;;;;;;;5.72;2.37;;;20.70;41.70;;;;;;6653147;89;20349;-79
2021/04/27 12:26:04;;;;;;;5.40;2.63;;;22.60;40.10;;;;;;6653941;89;20390;-80
2021/04/27 12:36:05;;;;;;;6.30;2.50;;;21.10;40.00;;;;;;6648464;89;20188;-78
2021/04/27 12:46:06;;;;;;;3.72;2.55;;;23.60;40.20;;;;;;6650114;89;20325;-78
2021/04/27 12:56:18;;;;;;;4.97;2.58;;;21.50;38.80;;;;;;6649011;89;20187;-80
2021/04/27 13:06:25;;;;;;;4.00;2.70;;;23.90;40.10;;;;;;6647600;89;20215;-79
2021/04/27 13:16:35;;;;;;;4.72;2.70;;;23.60;38.90;;;;;;6650391;89;20203;-79
2021/04/27 13:26:35;;;;;;;5.40;2.62;;;22.70;38.90;;;;;;6634699;89;20204;-78
2021/04/27 13:36:36;;;;;;;9.23;3.00;;;22.80;39.40;;;;;;6635982;89;20213;-81
2021/04/27 13:46:37;;;;;;;5.50;2.65;;;24.10;38.00;;;;;;6636233;89;20225;-78
2021/04/27 13:56:38;;;;;;;4.55;2.55;;;23.70;36.50;;;;;;6636253;89;20211;-79
2021/04/27 14:06:40;;;;;;;5.17;2.47;;;24.70;37.40;;;;;;6653413;89;20299;-80
2021/04/27 14:16:40;;;;;;;5.60;2.28;;;25.40;36.30;;;;;;6668465;89;20206;-78
2021/04/27 14:26:41;;;;;;;7.07;2.85;;;24.40;36.80;;;;;;6661753;89;20314;-77
2021/04/27 14:36:41;;;;;;;4.07;2.45;;;25.10;36.80;;;;;;6660323;88;20201;-78
2021/04/27 14:46:42;;;;;;;7.25;2.80;;;22.80;38.20;;;;;;6654777;89;20205;-78
2021/04/27 14:56:43;;;;;;;3.13;2.23;;;22.50;37.00;;;;;;6653856;89;20187;-77
2021/04/27 15:06:44;;;;;;;5.40;2.33;;;22.30;38.40;;;;;;6645901;89;20228;-76
2021/04/27 15:16:46;;;;;;;6.60;2.50;;;23.80;38.10;;;;;;6644186;88;20643;-77
2021/04/27 15:26:47;;;;;;;5.62;2.40;;;23.70;37.60;;;;;;6639983;89;20184;-77
2021/04/27 15:36:48;;;;;;;5.28;2.35;;;23.40;37.90;;;;;;6651399;89;20645;-77
2021/04/27 15:46:49;;;;;;;6.43;2.50;;;23.30;38.50;;;;;;6655764;88;20257;-76
2021/04/27 15:56:50;;;;;;;3.83;2.40;;;22.50;38.30;;;;;;6647260;88;20222;-76
2021/04/27 16:06:51;;;;;;;5.07;2.62;;;22.20;38.20;;;;;;6645807;89;20242;-76
2021/04/27 16:16:52;;;;;;;4.12;2.53;;;21.20;39.40;;;;;;6650262;89;20295;-79
2021/04/27 16:26:52;;;;;;;4.20;2.53;;;21.70;38.90;;;;;;6657616;89;20254;-76
2021/04/27 16:36:53;;;;;;;4.85;2.53;;;21.30;40.00;;;;;;6651538;89;20189;-75
2021/04/27 16:46:53;;;;;;;4.68;2.50;;;21.10;39.50;;;;;;6655458;89;20196;-76
2021/04/27 16:56:54;;;;;;;3.72;2.50;;;20.40;39.90;;;;;;6653778;88;20192;-78
2021/04/27 17:06:55;;;;;;;7.15;2.90;;;20.20;40.50;;;;;;6646803;89;20192;-76
2021/04/27 17:16:56;;;;;;;6.15;2.70;;;20.10;41.20;;;;;;6651711;89;20214;-76
2021/04/27 17:26:56;;;;;;;6.43;2.50;;;20.20;40.70;;;;;;6637402;88;20225;-78
2021/04/27 17:36:57;;;;;;;4.55;2.10;;;20.80;40.30;;;;;;6638257;88;20193;-77
2021/04/27 17:46:59;;;;;;;7.45;2.25;;;19.80;41.70;;;;;;6636013;89;20314;-76
2021/04/27 17:57:00;;;;;;;3.33;2.33;;;19.00;42.20;;;;;;6647850;89;20218;-73
2021/04/27 18:07:01;;;;;;;3.90;2.08;;;18.20;42.60;;;;;;6635241;88;20302;-74
2021/04/27 18:17:01;;;;;;;3.35;1.73;;;17.80;43.90;;;;;;6645492;89;20255;-75
2021/04/27 18:27:04;;;;;;;3.72;1.92;;;17.30;45.90;;;;;;6657267;89;20197;-77
2021/04/27 18:37:06;;;;;;;4.10;1.98;;;17.00;46.60;;;;;;6702254;88;20197;-76
2021/04/27 18:47:07;;;;;;;6.15;2.00;;;16.40;47.70;;;;;;6719437;88;20218;-77
2021/04/27 18:57:08;;;;;;;5.90;2.55;;;16.10;48.10;;;;;;6685436;88;20193;-77
2021/04/27 19:07:09;;;;;;;4.15;1.87;;;15.70;50.50;;;;;;6639096;88;20226;-76
2021/04/27 19:17:09;;;;;;;4.78;2.47;;;15.10;50.80;;;;;;6646564;89;20708;-77
2021/04/27 19:27:12;;;;;;;4.43;2.50;;;14.60;52.90;;;;;;6646017;88;20828;-76
2021/04/27 19:37:13;;;;;;;4.57;2.33;;;14.10;54.50;;;;;;6683307;88;20699;-77
2021/04/27 19:47:13;;;;;;;9.00;3.90;;;13.80;54.90;;;;;;6645273;89;20213;-77
2021/04/27 19:57:14;;;;;;;6.68;2.70;;;13.60;58.30;;;;;;6638635;89;20659;-75
2021/04/27 20:07:15;;;;;;;5.32;2.87;;;13.10;60.00;;;;;;6654911;88;20177;-76
2021/04/27 20:17:17;;;;;;;6.37;2.75;;;12.80;59.90;;;;;;6649198;89;20227;-76
2021/04/27 20:27:18;;;;;;;6.50;2.85;;;12.70;60.60;;;;;;6675296;88;20246;-76
2021/04/27 20:37:19;;;;;;;5.45;3.03;;;12.30;61.80;;;;;;6658084;88;20354;-77
2021/04/27 20:47:19;;;;;;;6.40;2.80;;;12.00;63.30;;;;;;6648378;89;20398;-76
2021/04/27 20:57:20;;;;;;;4.18;2.50;;;11.90;64.00;;;;;;6648166;89;20210;-76
2021/04/27 21:07:20;;;;;;;8.57;3.03;;;11.70;64.40;;;;;;6643927;89;20672;-76
2021/04/27 21:17:21;;;;;;;7.05;3.47;;;11.30;67.50;;;;;;6640667;89;21053;-76
2021/04/27 21:27:22;;;;;;;8.00;3.70;;;11.10;70.70;;;;;;6647867;89;20223;-76
2021/04/27 21:37:23;;;;;;;7.37;3.20;;;10.80;71.40;;;;;;6648935;89;20211;-76
2021/04/27 21:47:23;;;;;;;6.85;3.05;;;10.70;71.60;;;;;;6642977;88;20222;-77
2021/04/27 21:57:24;;;;;;;5.80;2.72;;;10.50;71.90;;;;;;6645184;89;20205;-77
2021/04/27 22:07:25;;;;;;;8.15;3.30;;;10.60;75.60;;;;;;6650076;88;20180;-75
2021/04/27 22:17:25;;;;;;;5.70;3.30;;;10.10;82.90;;;;;;6644719;89;20202;-75
2021/04/27 22:27:26;;;;;;;7.07;3.03;;;10.20;85.50;;;;;;6643248;89;20176;-76
2021/04/27 22:37:27;;;;;;;7.72;3.10;;;10.00;88.00;;;;;;6646093;89;20193;-75
2021/04/27 22:47:28;;;;;;;7.55;2.95;;;9.70;91.10;;;;;;6640675;88;20197;-76
2021/04/27 22:57:28;;;;;;;9.10;3.05;;;9.40;93.30;;;;;;6645602;88;20221;-74
2021/04/27 23:07:29;;;;;;;7.00;3.10;;;9.30;93.20;;;;;;6651103;89;20193;-77
2021/04/27 23:17:29;;;;;;;6.68;3.10;;;9.20;92.40;;;;;;6648916;89;20318;-76
2021/04/27 23:27:30;;;;;;;5.57;2.70;;;9.00;91.80;;;;;;6652294;89;20694;-76
2021/04/27 23:37:30;;;;;;;5.10;2.30;;;8.80;91.80;;;;;;6658317;89;20363;-77
2021/04/27 23:47:31;;;;;;;6.78;2.80;;;8.70;91.50;;;;;;6651757;89;20511;-77
2021/04/27 23:57:32;;;;;;;5.82;2.45;;;8.50;91.90;;;;;;6652083;89;20221;-76
